Time;durP1;ratioP1;P1;durP2;ratioP2;P2;SDS_P1;SDS_P2;PMS_P1;PMS_P2;Temp;Humidity;BMP_temperature;BMP_pressure;BME280_temperature;BME280_humidity;BME280_pressure;Samples;Min_cycle;Max_cycle;Signal;HPM_P1;HPM_P2
2023/05/27 09:33:23;;;;;;;80.78;8.52;;;;;;;;;;5028321;28;20403;-54
2023/05/27 09:35:49;;;;;;;58.97;7.63;;;;;;;;;;5013272;28;20083;-55
2023/05/27 09:38:15;;;;;;;76.18;8.30;;;;;;;;;;4999773;28;20041;-55
2023/05/27 09:40:43;;;;;;;68.10;8.70;;;;;;;;;;4999294;28;20033;-56
2023/05/27 09:43:12;;;;;;;48.05;7.15;;;;;;;;;;4998296;28;20072;-53
2023/05/27 09:45:37;;;;;;;74.03;9.73;;;;;;;;;;4998478;28;20102;-54
2023/05/27 09:48:03;;;;;;;38.33;6.17;;;;;;;;;;4999608;28;20037;-59
2023/05/27 09:50:33;;;;;;;41.55;6.28;;;;;;;;;;4999470;28;20072;-56
2023/05/27 09:52:58;;;;;;;39.85;6.22;;;;;;;;;;4984589;28;20018;-55
2023/05/27 09:55:23;;;;;;;51.10;7.03;;;;;;;;;;4998532;28;20048;-55
2023/05/27 09:57:49;;;;;;;69.90;9.65;;;;;;;;;;4998536;28;20830;-55
2023/05/27 10:00:15;;;;;;;30.20;4.65;;;;;;;;;;4998648;28;20025;-55
2023/05/27 10:02:42;;;;;;;64.13;7.93;;;;;;;;;;5000234;28;20109;-56
2023/05/27 10:05:07;;;;;;;31.20;5.18;;;;;;;;;;4998860;28;20022;-58
2023/05/27 10:07:36;;;;;;;35.65;5.22;;;;;;;;;;4997087;28;20051;-57
2023/05/27 10:10:01;;;;;;;42.50;6.28;;;;;;;;;;4999318;28;20033;-57
2023/05/27 10:12:28;;;;;;;40.47;6.27;;;;;;;;;;4999217;28;20091;-57
2023/05/27 10:14:53;;;;;;;53.28;7.57;;;;;;;;;;4998645;28;20268;-58
2023/05/27 10:17:18;;;;;;;40.87;6.13;;;;;;;;;;4997545;28;20061;-57
2023/05/27 10:19:54;;;;;;;61.27;8.70;;;;;;;;;;4996837;28;20018;-55
2023/05/27 10:22:20;;;;;;;61.08;7.53;;;;;;;;;;4998728;28;20064;-56
2023/05/27 10:24:46;;;;;;;81.20;10.02;;;;;;;;;;4998130;28;20026;-55
2023/05/27 10:27:11;;;;;;;51.72;7.28;;;;;;;;;;4999017;28;20045;-54
2023/05/27 10:29:40;;;;;;;77.95;9.02;;;;;;;;;;4998512;28;20112;-54
2023/05/27 10:32:05;;;;;;;66.72;7.80;;;;;;;;;;4997668;28;20898;-58
2023/05/27 10:34:34;;;;;;;61.22;7.93;;;;;;;;;;4997129;28;20080;-56
2023/05/27 10:37:02;;;;;;;47.42;6.60;;;;;;;;;;4998238;28;20030;-54
2023/05/27 10:39:28;;;;;;;51.25;7.15;;;;;;;;;;4998882;28;20843;-55
2023/05/27 10:41:54;;;;;;;48.67;6.85;;;;;;;;;;4997026;28;20034;-58
2023/05/27 10:44:36;;;;;;;42.22;5.63;;;;;;;;;;4987520;28;20068;-58
2023/05/27 12:15:01;;;;;;;61.80;7.95;;;;;;;;;;5035589;28;20397;-58
2023/05/27 12:17:26;;;;;;;58.60;8.00;;;;;;;;;;5001012;28;20033;-55
2023/05/27 12:19:51;;;;;;;81.93;10.50;;;;;;;;;;4998795;28;20021;-58
2023/05/27 12:22:17;;;;;;;48.93;7.07;;;;;;;;;;5017909;28;20487;-57
2023/05/27 12:24:42;;;;;;;57.78;8.00;;;;;;;;;;5018849;28;20410;-57
2023/05/27 12:27:07;;;;;;;69.27;8.07;;;;;;;;;;5018976;28;20030;-60
2023/05/27 12:29:34;;;;;;;68.75;7.80;;;;;;;;;;5017952;28;20069;-58
2023/05/27 12:31:59;;;;;;;107.20;10.73;;;;;;;;;;5017887;28;20279;-59
2023/05/27 12:34:25;;;;;;;61.38;7.15;;;;;;;;;;5021037;28;20021;-57
2023/05/27 12:36:50;;;;;;;104.93;11.55;;;;;;;;;;5017813;28;20030;-56
2023/05/27 12:39:16;;;;;;;72.50;7.80;;;;;;;;;;5018535;28;20510;-55
2023/05/27 12:41:41;;;;;;;56.38;6.97;;;;;;;;;;5025604;28;20391;-55
2023/05/27 12:44:06;;;;;;;65.22;7.70;;;;;;;;;;5027750;28;20286;-58
2023/05/27 12:46:32;;;;;;;72.77;8.20;;;;;;;;;;5017419;28;20403;-55
2023/05/27 12:48:57;;;;;;;99.38;10.48;;;;;;;;;;5017383;28;20342;-57
2023/05/27 12:51:22;;;;;;;75.47;8.50;;;;;;;;;;5017626;28;20052;-55
2023/05/27 12:53:48;;;;;;;82.93;8.70;;;;;;;;;;5019193;28;20860;-58
2023/05/27 12:56:13;;;;;;;62.60;7.38;;;;;;;;;;5016529;28;20268;-56
2023/05/27 12:58:38;;;;;;;70.93;8.20;;;;;;;;;;5018101;28;20900;-57
2023/05/27 13:01:04;;;;;;;61.77;7.27;;;;;;;;;;5018742;28;20371;-56
2023/05/27 13:03:29;;;;;;;71.93;7.78;;;;;;;;;;5019658;28;20268;-55
2023/05/27 13:05:55;;;;;;;110.05;11.25;;;;;;;;;;5014800;28;20160;-54
2023/05/27 13:08:20;;;;;;;63.95;6.93;;;;;;;;;;5019228;28;20210;-56
2023/05/27 13:10:45;;;;;;;94.88;9.63;;;;;;;;;;5018198;28;20045;-56
2023/05/27 13:13:11;;;;;;;63.08;6.93;;;;;;;;;;5017040;28;20036;-56
2023/05/27 13:15:37;;;;;;;66.83;7.57;;;;;;;;;;5019103;28;20120;-57
2023/05/27 13:18:03;;;;;;;109.22;10.57;;;;;;;;;;5017238;28;20028;-56
2023/05/27 13:20:29;;;;;;;63.88;7.25;;;;;;;;;;5018298;28;20116;-55
2023/05/27 13:22:59;;;;;;;112.38;11.88;;;;;;;;;;5017163;28;20036;-56
2023/05/27 13:25:24;;;;;;;72.65;7.90;;;;;;;;;;5008179;28;20025;-54
2023/05/27 13:27:51;;;;;;;93.13;9.45;;;;;;;;;;5005119;28;20059;-57
2023/05/27 13:30:17;;;;;;;68.22;7.80;;;;;;;;;;5004110;28;20193;-55
2023/05/27 13:32:43;;;;;;;53.42;6.45;;;;;;;;;;5004496;28;21013;-59
2023/05/27 13:35:08;;;;;;;80.88;8.15;;;;;;;;;;5004694;28;20021;-59
2023/05/27 13:37:34;;;;;;;51.17;6.38;;;;;;;;;;5007855;28;20376;-58
2023/05/27 13:39:59;;;;;;;99.38;10.60;;;;;;;;;;5003123;28;20095;-55
2023/05/27 13:42:24;;;;;;;65.00;7.30;;;;;;;;;;5003714;28;20030;-57
2023/05/27 13:44:50;;;;;;;102.13;10.02;;;;;;;;;;5005388;28;20033;-57
2023/05/27 13:47:15;;;;;;;67.30;7.00;;;;;;;;;;5003841;28;20641;-59
2023/05/27 13:49:40;;;;;;;81.53;8.53;;;;;;;;;;5007405;28;20264;-60
2023/05/27 13:52:05;;;;;;;63.83;6.90;;;;;;;;;;5001886;28;20280;-58
2023/05/27 13:54:31;;;;;;;67.20;7.47;;;;;;;;;;5006864;28;20025;-64
2023/05/27 13:56:56;;;;;;;101.22;10.38;;;;;;;;;;5003241;28;20050;-60
2023/05/27 13:59:21;;;;;;;77.40;8.90;;;;;;;;;;5005174;28;20063;-63
2023/05/27 14:01:47;;;;;;;74.63;8.60;;;;;;;;;;5003999;28;20060;-62
2023/05/27 14:04:12;;;;;;;59.80;6.40;;;;;;;;;;5006012;28;20273;-59
2023/05/27 14:06:37;;;;;;;54.33;6.38;;;;;;;;;;5003144;28;20025;-61
2023/05/27 14:09:02;;;;;;;147.73;13.43;;;;;;;;;;5002920;28;20025;-59
2023/05/27 14:11:28;;;;;;;65.50;7.35;;;;;;;;;;5004951;28;20274;-59
2023/05/27 14:13:56;;;;;;;101.07;10.17;;;;;;;;;;5001771;28;20042;-59
2023/05/27 14:16:22;;;;;;;80.25;8.07;;;;;;;;;;5004730;28;20116;-57
2023/05/27 14:18:48;;;;;;;63.13;7.25;;;;;;;;;;5004544;28;20048;-60
2023/05/27 14:21:14;;;;;;;71.75;7.72;;;;;;;;;;5005960;28;20077;-61
2023/05/27 14:23:39;;;;;;;62.20;7.25;;;;;;;;;;5004938;28;20041;-60
2023/05/27 14:26:05;;;;;;;97.83;10.00;;;;;;;;;;5001111;28;20450;-60
2023/05/27 14:28:30;;;;;;;79.60;8.43;;;;;;;;;;5011943;28;20352;-61
2023/05/27 14:30:55;;;;;;;111.25;10.13;;;;;;;;;;5002251;28;20034;-54
2023/05/27 14:33:20;;;;;;;70.20;7.57;;;;;;;;;;5003069;28;20026;-57
2023/05/27 14:35:46;;;;;;;63.50;7.17;;;;;;;;;;5002607;28;20690;-56
2023/05/27 14:38:12;;;;;;;64.22;7.20;;;;;;;;;;5003514;28;20257;-55
2023/05/27 14:40:38;;;;;;;82.18;8.27;;;;;;;;;;5001597;28;20045;-57
2023/05/27 14:43:03;;;;;;;92.03;9.88;;;;;;;;;;5002216;28;20037;-56
2023/05/27 14:45:28;;;;;;;59.33;7.22;;;;;;;;;;5005818;28;20030;-57
2023/05/27 14:47:54;;;;;;;105.47;10.50;;;;;;;;;;5001247;28;20029;-66
2023/05/27 14:50:20;;;;;;;70.88;7.35;;;;;;;;;;5005398;28;20055;-56
2023/05/27 14:52:46;;;;;;;67.00;7.10;;;;;;;;;;5003458;28;20021;-58
2023/05/27 14:55:11;;;;;;;66.20;7.00;;;;;;;;;;5004388;28;20018;-57
2023/05/27 14:57:36;;;;;;;63.78;7.53;;;;;;;;;;5002168;28;20140;-60
2023/05/27 15:00:04;;;;;;;120.70;11.85;;;;;;;;;;5000225;28;20034;-59
2023/05/27 15:02:30;;;;;;;68.68;7.55;;;;;;;;;;5003555;28;20047;-57
2023/05/27 15:04:55;;;;;;;149.05;13.82;;;;;;;;;;5001601;28;20022;-57
2023/05/27 15:07:22;;;;;;;68.82;7.78;;;;;;;;;;5001930;28;20038;-57
2023/05/27 15:09:48;;;;;;;64.95;7.07;;;;;;;;;;5002263;28;20009;-56
2023/05/27 15:12:13;;;;;;;63.50;6.93;;;;;;;;;;4999969;28;20091;-64
2023/05/27 15:14:38;;;;;;;66.30;7.40;;;;;;;;;;5001666;28;20022;-53
2023/05/27 15:17:04;;;;;;;117.63;10.82;;;;;;;;;;5000556;28;20029;-55
2023/05/27 15:19:30;;;;;;;84.30;8.63;;;;;;;;;;5003203;28;20897;-53
2023/05/27 15:21:55;;;;;;;115.60;11.35;;;;;;;;;;5000160;28;20026;-58
2023/05/27 15:24:20;;;;;;;66.00;7.00;;;;;;;;;;5003467;28;20490;-56
2023/05/27 15:26:45;;;;;;;65.78;7.22;;;;;;;;;;5004216;28;20289;-59
2023/05/27 15:29:11;;;;;;;67.00;7.53;;;;;;;;;;5002458;28;20031;-57
2023/05/27 15:31:36;;;;;;;70.55;7.63;;;;;;;;;;5003694;28;20025;-57
2023/05/27 15:34:02;;;;;;;118.32;11.65;;;;;;;;;;5002258;28;20022;-55
2023/05/27 15:36:27;;;;;;;70.85;7.03;;;;;;;;;;5003110;28;20029;-57
2023/05/27 15:38:53;;;;;;;83.55;8.35;;;;;;;;;;5001459;28;20030;-53
2023/05/27 15:41:18;;;;;;;62.00;6.72;;;;;;;;;;5003561;28;20534;-54
2023/05/27 15:43:43;;;;;;;65.03;7.00;;;;;;;;;;5003335;28;20376;-58
2023/05/27 15:46:09;;;;;;;122.00;11.98;;;;;;;;;;4999017;28;20450;-55
2023/05/27 15:48:34;;;;;;;60.70;7.17;;;;;;;;;;5002106;28;20045;-56
2023/05/27 15:50:59;;;;;;;111.20;10.63;;;;;;;;;;5000208;28;20273;-56
2023/05/27 15:53:25;;;;;;;77.13;8.17;;;;;;;;;;5002430;28;20104;-55
2023/05/27 15:55:50;;;;;;;69.63;7.97;;;;;;;;;;5001104;28;20642;-57
2023/05/27 15:58:15;;;;;;;78.07;8.03;;;;;;;;;;5002107;28;20024;-56
2023/05/27 16:00:40;;;;;;;72.97;7.63;;;;;;;;;;5001531;28;20316;-56
2023/05/27 16:03:06;;;;;;;116.38;11.63;;;;;;;;;;5001234;28;20025;-56
2023/05/27 16:05:31;;;;;;;81.07;8.07;;;;;;;;;;5003029;28;20878;-58
2023/05/27 16:07:56;;;;;;;99.07;9.57;;;;;;;;;;5002821;28;20076;-57
2023/05/27 16:10:22;;;;;;;61.25;6.60;;;;;;;;;;5003311;28;20029;-55
2023/05/27 16:12:47;;;;;;;65.50;7.20;;;;;;;;;;5001772;28;20013;-56
2023/05/27 16:15:12;;;;;;;60.53;6.63;;;;;;;;;;5000076;28;20014;-55
2023/05/27 16:17:37;;;;;;;56.83;6.30;;;;;;;;;;5003770;28;20271;-57
2023/05/27 16:20:03;;;;;;;101.53;10.25;;;;;;;;;;5000227;28;20448;-56
2023/05/27 16:22:29;;;;;;;56.53;6.45;;;;;;;;;;5002713;28;20925;-56
2023/05/27 16:24:54;;;;;;;69.43;7.57;;;;;;;;;;4999157;28;20133;-56
2023/05/27 16:27:20;;;;;;;60.87;6.93;;;;;;;;;;5004033;28;20026;-59
2023/05/27 16:29:45;;;;;;;44.93;5.93;;;;;;;;;;5002956;28;20300;-58
2023/05/27 16:32:10;;;;;;;97.80;9.95;;;;;;;;;;5000438;28;20895;-60
2023/05/27 16:34:35;;;;;;;57.47;6.57;;;;;;;;;;5002205;28;20105;-58
2023/05/27 16:37:01;;;;;;;90.70;8.77;;;;;;;;;;4999826;28;20367;-59
2023/05/27 16:39:26;;;;;;;71.25;7.38;;;;;;;;;;5002745;28;20838;-59
2023/05/27 16:41:52;;;;;;;51.38;6.20;;;;;;;;;;5000544;28;20092;-57
2023/05/27 16:44:17;;;;;;;52.08;5.85;;;;;;;;;;5000377;28;20052;-57
2023/05/27 16:46:43;;;;;;;68.72;7.20;;;;;;;;;;5001794;28;20034;-57
2023/05/27 16:49:08;;;;;;;90.25;9.25;;;;;;;;;;5001013;28;20025;-57
2023/05/27 16:51:33;;;;;;;49.53;5.82;;;;;;;;;;5001161;28;20045;-56
2023/05/27 16:53:58;;;;;;;57.80;6.53;;;;;;;;;;5000651;28;20053;-56
2023/05/27 16:56:24;;;;;;;41.50;5.17;;;;;;;;;;5001190;28;20084;-58
2023/05/27 16:58:54;;;;;;;52.63;5.80;;;;;;;;;;5001765;28;20108;-56
2023/05/27 17:01:19;;;;;;;45.28;5.10;;;;;;;;;;5003867;28;20117;-56
2023/05/27 17:03:44;;;;;;;61.42;6.50;;;;;;;;;;5006542;28;20678;-56
2023/05/27 17:06:10;;;;;;;95.47;9.37;;;;;;;;;;5005983;28;20033;-58
2023/05/27 17:08:35;;;;;;;44.42;5.38;;;;;;;;;;5005561;28;20034;-57
2023/05/27 17:11:00;;;;;;;82.20;8.47;;;;;;;;;;5004809;28;20579;-55
2023/05/27 17:13:26;;;;;;;55.55;5.50;;;;;;;;;;5005974;28;20276;-56
2023/05/27 17:15:52;;;;;;;55.35;6.47;;;;;;;;;;5006117;28;20121;-55
2023/05/27 17:18:18;;;;;;;56.63;6.05;;;;;;;;;;5004208;28;20037;-57
2023/05/27 17:20:43;;;;;;;45.03;5.57;;;;;;;;;;5007682;28;20038;-56
2023/05/27 17:23:08;;;;;;;89.27;9.07;;;;;;;;;;5003987;28;21187;-56
2023/05/27 17:25:33;;;;;;;68.30;7.22;;;;;;;;;;5003727;28;20474;-58
2023/05/27 17:27:59;;;;;;;51.17;6.23;;;;;;;;;;5004690;28;20554;-56
2023/05/27 17:30:24;;;;;;;43.40;5.57;;;;;;;;;;5006519;28;20673;-56
2023/05/27 17:32:49;;;;;;;45.42;5.78;;;;;;;;;;5004008;28;20029;-55
2023/05/27 17:35:15;;;;;;;93.67;8.80;;;;;;;;;;5005205;28;20048;-59
2023/05/27 17:37:40;;;;;;;59.60;6.30;;;;;;;;;;5007532;28;20256;-58
2023/05/27 17:40:08;;;;;;;92.68;9.60;;;;;;;;;;5003970;28;20018;-56
2023/05/27 17:42:33;;;;;;;50.00;5.72;;;;;;;;;;5007776;28;20609;-57
2023/05/27 17:44:59;;;;;;;61.47;6.53;;;;;;;;;;5003256;28;20034;-55
2023/05/27 17:47:24;;;;;;;49.13;5.90;;;;;;;;;;5003953;28;20304;-56
2023/05/27 17:49:49;;;;;;;42.13;5.32;;;;;;;;;;5006773;28;20359;-55
2023/05/27 17:52:15;;;;;;;93.70;9.70;;;;;;;;;;5003511;28;20132;-57
2023/05/27 17:54:41;;;;;;;44.78;5.55;;;;;;;;;;5003650;28;20280;-57
2023/05/27 17:57:06;;;;;;;103.25;10.30;;;;;;;;;;5002866;28;20022;-57
2023/05/27 17:59:32;;;;;;;59.35;6.32;;;;;;;;;;5005245;28;20101;-55
2023/05/27 18:01:57;;;;;;;48.95;5.75;;;;;;;;;;5004117;28;20034;-55
2023/05/27 18:04:22;;;;;;;44.63;5.40;;;;;;;;;;5003464;28;20052;-57
2023/05/27 18:06:47;;;;;;;44.80;5.23;;;;;;;;;;5004725;28;20048;-55
2023/05/27 18:09:13;;;;;;;85.20;8.85;;;;;;;;;;5002354;28;20323;-57
2023/05/27 18:11:38;;;;;;;38.80;5.00;;;;;;;;;;5004532;28;20122;-59
2023/05/27 18:14:05;;;;;;;72.90;7.88;;;;;;;;;;5002882;28;20038;-55
2023/05/27 18:16:31;;;;;;;112.30;10.00;;;;;;;;;;5003723;28;20021;-56
2023/05/27 18:18:56;;;;;;;64.50;6.38;;;;;;;;;;5007318;28;20057;-57
2023/05/27 18:21:21;;;;;;;40.40;5.27;;;;;;;;;;5010081;28;20385;-56
2023/05/27 18:23:47;;;;;;;52.53;5.87;;;;;;;;;;5009907;28;20265;-58
2023/05/27 18:26:12;;;;;;;93.20;9.00;;;;;;;;;;5008712;28;20269;-57
2023/05/27 18:28:37;;;;;;;40.83;5.00;;;;;;;;;;5007686;28;20304;-56
2023/05/27 18:31:02;;;;;;;59.97;5.87;;;;;;;;;;5003665;28;20640;-55
2023/05/27 18:33:27;;;;;;;50.67;5.67;;;;;;;;;;5004341;28;20291;-57
2023/05/27 18:35:53;;;;;;;54.33;6.07;;;;;;;;;;5005767;28;20273;-57
2023/05/27 18:38:18;;;;;;;85.15;8.38;;;;;;;;;;5001193;28;20260;-58
2023/05/27 18:40:43;;;;;;;43.40;5.40;;;;;;;;;;5003415;28;21018;-58
2023/05/27 18:43:09;;;;;;;101.23;9.27;;;;;;;;;;5003555;28;20913;-58
2023/05/27 18:45:55;;;;;;;57.40;6.40;;;;;;;;;;5001776;28;20276;-54
2023/05/27 18:48:21;;;;;;;125.15;11.43;;;;;;;;;;5002422;28;20026;-57
2023/05/27 18:50:46;;;;;;;60.33;6.35;;;;;;;;;;5004841;28;20064;-54
2023/05/27 18:53:12;;;;;;;113.73;10.73;;;;;;;;;;5001000;28;20465;-58
2023/05/27 18:55:37;;;;;;;81.28;7.63;;;;;;;;;;5002655;28;20317;-57
2023/05/27 18:58:02;;;;;;;81.70;7.83;;;;;;;;;;5004681;28;20053;-60
2023/05/27 19:00:27;;;;;;;86.50;8.13;;;;;;;;;;5001589;28;21032;-56
2023/05/27 19:02:54;;;;;;;76.13;7.55;;;;;;;;;;5003650;28;20435;-58
2023/05/27 19:05:19;;;;;;;135.77;11.50;;;;;;;;;;5000578;28;20025;-58
2023/05/27 19:07:44;;;;;;;79.57;7.83;;;;;;;;;;5005479;28;20024;-59
2023/05/27 19:10:09;;;;;;;110.03;10.10;;;;;;;;;;5001811;28;20276;-60
2023/05/27 19:12:35;;;;;;;74.28;6.95;;;;;;;;;;5005106;28;20018;-59
2023/05/27 19:15:00;;;;;;;79.27;7.47;;;;;;;;;;5003806;28;20825;-59
2023/05/27 19:17:25;;;;;;;74.93;7.33;;;;;;;;;;5003223;28;20292;-56
2023/05/27 19:19:51;;;;;;;75.45;7.22;;;;;;;;;;5003935;28;20026;-59
2023/05/27 19:22:18;;;;;;;97.17;9.23;;;;;;;;;;5002080;28;20029;-56
2023/05/27 19:24:44;;;;;;;64.07;6.35;;;;;;;;;;5004190;28;20268;-60
2023/05/27 19:27:09;;;;;;;119.97;10.15;;;;;;;;;;4999851;28;20114;-59
2023/05/27 19:29:35;;;;;;;92.80;8.50;;;;;;;;;;5001548;28;20029;-58
2023/05/27 19:32:00;;;;;;;63.23;6.53;;;;;;;;;;5003957;28;20044;-57
2023/05/27 19:34:25;;;;;;;82.28;7.82;;;;;;;;;;5001458;28;20083;-57
2023/05/27 19:36:50;;;;;;;78.20;7.43;;;;;;;;;;5003572;28;20499;-56
2023/05/27 19:39:18;;;;;;;125.77;10.57;;;;;;;;;;5004079;28;20264;-54
2023/05/27 19:41:43;;;;;;;88.85;8.13;;;;;;;;;;5002033;28;20376;-55
2023/05/27 19:44:09;;;;;;;100.75;9.35;;;;;;;;;;5001056;28;20022;-57
2023/05/27 19:46:34;;;;;;;95.35;9.20;;;;;;;;;;5003691;28;20491;-55
2023/05/27 19:49:01;;;;;;;82.27;8.37;;;;;;;;;;5003055;28;20064;-55
2023/05/27 19:51:26;;;;;;;69.68;7.90;;;;;;;;;;4999838;28;20300;-56
2023/05/27 19:53:56;;;;;;;73.93;7.67;;;;;;;;;;5002452;28;20084;-56
2023/05/27 19:56:21;;;;;;;124.63;11.50;;;;;;;;;;5000062;28;20523;-54
2023/05/27 19:58:46;;;;;;;84.53;8.25;;;;;;;;;;5002580;28;20087;-53
2023/05/27 20:01:11;;;;;;;103.90;9.90;;;;;;;;;;4999234;28;20032;-57
2023/05/27 20:03:37;;;;;;;75.80;8.15;;;;;;;;;;5002489;28;20277;-59
2023/05/27 20:06:02;;;;;;;83.43;8.20;;;;;;;;;;5001454;28;20044;-59
2023/05/27 20:08:27;;;;;;;86.10;8.77;;;;;;;;;;5004197;28;20272;-57
2023/05/27 20:10:53;;;;;;;81.50;8.73;;;;;;;;;;5003113;28;20117;-56
2023/05/27 20:13:18;;;;;;;130.48;10.77;;;;;;;;;;5000864;28;20740;-56
2023/05/27 20:15:43;;;;;;;72.57;8.17;;;;;;;;;;5001212;28;20036;-58
2023/05/27 20:18:08;;;;;;;80.95;7.50;;;;;;;;;;5000527;28;20269;-56
2023/05/27 20:20:36;;;;;;;102.23;9.47;;;;;;;;;;5001565;28;20912;-56
2023/05/27 20:23:01;;;;;;;72.05;8.13;;;;;;;;;;5002228;28;20272;-56
2023/05/27 20:25:27;;;;;;;162.27;13.80;;;;;;;;;;4999172;28;20025;-56
2023/05/27 20:27:52;;;;;;;77.00;8.25;;;;;;;;;;5002395;28;20030;-58
2023/05/27 20:30:19;;;;;;;125.20;12.35;;;;;;;;;;5000785;28;20672;-57
2023/05/27 20:32:45;;;;;;;85.75;9.02;;;;;;;;;;5001875;28;20180;-57
2023/05/27 20:35:10;;;;;;;79.03;8.93;;;;;;;;;;5000807;28;20022;-56
2023/05/27 20:37:35;;;;;;;92.82;9.48;;;;;;;;;;5006839;28;20021;-56
2023/05/27 20:40:02;;;;;;;86.40;9.52;;;;;;;;;;5006508;28;20022;-56
2023/05/27 20:42:27;;;;;;;132.20;12.40;;;;;;;;;;5003357;28;20484;-57
2023/05/27 20:44:53;;;;;;;100.97;10.43;;;;;;;;;;5005545;28;20037;-56
2023/05/27 20:47:18;;;;;;;118.40;11.30;;;;;;;;;;5004627;28;20029;-57
2023/05/27 20:49:43;;;;;;;83.55;9.18;;;;;;;;;;5006684;28;20036;-57
2023/05/27 20:52:08;;;;;;;90.28;9.77;;;;;;;;;;5003943;28;20831;-58
2023/05/27 20:54:34;;;;;;;82.57;9.37;;;;;;;;;;5004544;28;20022;-57
2023/05/27 20:57:00;;;;;;;94.55;9.80;;;;;;;;;;5005194;28;20284;-54
2023/05/27 20:59:25;;;;;;;145.48;13.68;;;;;;;;;;5004480;28;20747;-55
2023/05/27 21:01:50;;;;;;;88.63;8.85;;;;;;;;;;5004923;28;20109;-58
2023/05/27 21:04:15;;;;;;;161.05;14.77;;;;;;;;;;5004419;28;20048;-57
2023/05/27 21:06:41;;;;;;;84.70;8.77;;;;;;;;;;5004619;28;20052;-59
2023/05/27 21:09:06;;;;;;;96.00;9.27;;;;;;;;;;5007472;28;20279;-57
2023/05/27 21:11:31;;;;;;;82.17;8.13;;;;;;;;;;5002770;28;20049;-58
2023/05/27 21:13:57;;;;;;;86.82;8.38;;;;;;;;;;5005426;28;20291;-57
2023/05/27 21:16:24;;;;;;;119.00;10.65;;;;;;;;;;5002406;28;20026;-59
2023/05/27 21:18:50;;;;;;;99.18;8.85;;;;;;;;;;5005452;28;20018;-55
2023/05/27 21:21:15;;;;;;;124.95;10.23;;;;;;;;;;5005378;28;20091;-57
2023/05/27 21:23:41;;;;;;;85.32;8.63;;;;;;;;;;5005788;28;20017;-55
2023/05/27 21:26:06;;;;;;;99.40;9.13;;;;;;;;;;5003531;28;20088;-55
2023/05/27 21:28:31;;;;;;;73.43;7.33;;;;;;;;;;5002797;28;20033;-58
2023/05/27 21:30:57;;;;;;;118.03;9.38;;;;;;;;;;5003207;28;20281;-57
2023/05/27 21:33:22;;;;;;;129.57;10.70;;;;;;;;;;5003534;28;20042;-56
2023/05/27 21:35:47;;;;;;;92.35;8.40;;;;;;;;;;5002889;28;20442;-56
2023/05/27 21:38:12;;;;;;;91.93;7.97;;;;;;;;;;5002722;28;20079;-55
2023/05/27 21:40:38;;;;;;;81.03;7.65;;;;;;;;;;5003536;28;20265;-56
2023/05/27 21:43:03;;;;;;;96.93;8.65;;;;;;;;;;5003937;28;20101;-53
2023/05/27 21:45:29;;;;;;;125.80;10.57;;;;;;;;;;5002910;28;20044;-54
2023/05/27 21:47:54;;;;;;;76.40;7.60;;;;;;;;;;5005372;28;20111;-53
2023/05/27 21:50:20;;;;;;;143.32;12.70;;;;;;;;;;5003011;28;20363;-54
2023/05/27 21:52:46;;;;;;;73.40;7.45;;;;;;;;;;5006537;28;20888;-56
2023/05/27 21:55:11;;;;;;;72.07;7.80;;;;;;;;;;5003634;28;20030;-54
2023/05/27 21:57:36;;;;;;;88.38;8.10;;;;;;;;;;5003379;28;20021;-53
2023/05/27 22:00:07;;;;;;;79.88;7.93;;;;;;;;;;5005792;28;20033;-53
2023/05/27 22:02:32;;;;;;;161.80;12.43;;;;;;;;;;5002747;28;20045;-54
2023/05/27 22:04:57;;;;;;;98.30;8.55;;;;;;;;;;5006278;28;20600;-56
2023/05/27 22:07:23;;;;;;;124.82;10.82;;;;;;;;;;5003959;28;20040;-54
2023/05/27 22:09:48;;;;;;;98.80;9.00;;;;;;;;;;5002464;28;20471;-57
2023/05/27 22:12:14;;;;;;;80.27;7.67;;;;;;;;;;5005201;28;20265;-54
2023/05/27 22:14:39;;;;;;;90.68;8.18;;;;;;;;;;5002443;28;20438;-56
2023/05/27 22:17:04;;;;;;;96.63;8.18;;;;;;;;;;5002414;28;20100;-56
2023/05/27 22:19:30;;;;;;;143.33;12.37;;;;;;;;;;5001185;28;20032;-56
2023/05/27 22:21:55;;;;;;;78.20;7.87;;;;;;;;;;5002794;28;20745;-56
2023/05/27 22:24:20;;;;;;;123.30;10.73;;;;;;;;;;5003523;28;20347;-54
2023/05/27 22:26:45;;;;;;;61.00;6.45;;;;;;;;;;5001679;28;20033;-55
2023/05/27 22:29:11;;;;;;;74.50;7.17;;;;;;;;;;5004138;28;20490;-55
2023/05/27 22:31:36;;;;;;;72.65;7.10;;;;;;;;;;5001702;28;20383;-58
2023/05/27 22:34:01;;;;;;;72.47;6.95;;;;;;;;;;5001479;28;20083;-58
2023/05/27 22:36:26;;;;;;;111.77;9.83;;;;;;;;;;5001784;28;20022;-59
2023/05/27 22:38:52;;;;;;;57.30;5.53;;;;;;;;;;5005946;28;20261;-59
2023/05/27 22:41:17;;;;;;;66.35;7.00;;;;;;;;;;5003572;28;20064;-57
2023/05/27 22:43:42;;;;;;;59.17;6.50;;;;;;;;;;5004830;28;20022;-59
2023/05/27 22:46:08;;;;;;;60.40;6.80;;;;;;;;;;5003833;28;20045;-57
2023/05/27 22:48:33;;;;;;;133.15;11.93;;;;;;;;;;5000028;28;20647;-59
2023/05/27 22:50:59;;;;;;;66.05;6.78;;;;;;;;;;5003962;28;20068;-59
2023/05/27 22:53:24;;;;;;;108.88;10.18;;;;;;;;;;5005210;28;20042;-57
2023/05/27 22:55:50;;;;;;;55.00;6.57;;;;;;;;;;5003288;28;20092;-59
2023/05/27 22:58:15;;;;;;;59.28;6.80;;;;;;;;;;5003672;28;20253;-57
2023/05/27 23:00:40;;;;;;;72.10;6.82;;;;;;;;;;5002766;28;20400;-56
2023/05/27 23:03:06;;;;;;;62.95;7.38;;;;;;;;;;5004041;28;20151;-59
2023/05/27 23:05:31;;;;;;;127.10;11.90;;;;;;;;;;5000984;28;20616;-57
2023/05/27 23:07:56;;;;;;;65.57;7.30;;;;;;;;;;5003246;28;20147;-56
2023/05/27 23:10:21;;;;;;;84.72;8.77;;;;;;;;;;5002471;28;20588;-55
2023/05/27 23:12:47;;;;;;;55.60;6.85;;;;;;;;;;5003958;28;20424;-56
2023/05/27 23:15:12;;;;;;;67.85;7.32;;;;;;;;;;5001413;28;20226;-54
2023/05/27 23:17:37;;;;;;;120.93;11.70;;;;;;;;;;5000545;28;20030;-55
2023/05/27 23:20:03;;;;;;;76.18;8.15;;;;;;;;;;5001665;28;20013;-54
2023/05/27 23:22:28;;;;;;;107.43;10.82;;;;;;;;;;5002622;28;20033;-54
2023/05/27 23:24:53;;;;;;;52.90;6.78;;;;;;;;;;5002965;28;20462;-54
2023/05/27 23:27:19;;;;;;;73.23;7.93;;;;;;;;;;5001478;28;20426;-57
2023/05/27 23:29:44;;;;;;;63.25;7.53;;;;;;;;;;5000748;28;20455;-54
2023/05/27 23:32:09;;;;;;;68.03;7.80;;;;;;;;;;5001386;28;20051;-54
2023/05/27 23:34:34;;;;;;;134.38;12.23;;;;;;;;;;5001788;28;20034;-58
2023/05/27 23:37:00;;;;;;;55.93;6.60;;;;;;;;;;5002805;28;20335;-54
2023/05/27 23:39:25;;;;;;;113.95;10.95;;;;;;;;;;5001824;28;20257;-58
